Time;durP1;ratioP1;P1;durP2;ratioP2;P2;SDS_P1;SDS_P2;PMS_P1;PMS_P2;Temp;Humidity;BMP_temperature;BMP_pressure;BME280_temperature;BME280_humidity;BME280_pressure;Samples;Min_cycle;Max_cycle;Signal;HPM_P1;HPM_P2
2024/01/13 00:00:36;;;;;;;114.55;41.45;;;;;;;-4.81;100.00;98477.84;5000186;28;20414;-78
2024/01/13 00:03:03;;;;;;;133.77;50.10;;;;;;;-4.91;100.00;98477.78;4982047;28;20765;-78
2024/01/13 00:05:29;;;;;;;109.47;41.10;;;;;;;-4.91;100.00;98464.06;4995137;28;20406;-78
2024/01/13 00:07:55;;;;;;;97.07;35.30;;;;;;;-4.88;100.00;98474.13;4996736;28;20398;-78
2024/01/13 00:10:23;;;;;;;111.07;42.47;;;;;;;-4.89;100.00;98463.00;4996622;28;20430;-78
2024/01/13 00:12:49;;;;;;;106.32;37.50;;;;;;;-4.85;100.00;98468.72;4997757;28;20414;-79
2024/01/13 00:15:15;;;;;;;120.60;43.03;;;;;;;-4.86;100.00;98465.31;4998457;28;20472;-78
2024/01/13 00:17:41;;;;;;;102.70;37.38;;;;;;;-4.84;100.00;98465.19;4998223;28;20395;-79
2024/01/13 00:20:08;;;;;;;132.88;47.47;;;;;;;-4.89;100.00;98457.00;4998402;28;20430;-78
2024/01/13 00:22:34;;;;;;;116.65;41.47;;;;;;;-4.89;100.00;98457.84;4997928;28;20425;-79
2024/01/13 00:25:01;;;;;;;115.50;42.60;;;;;;;-4.87;100.00;98461.09;4997242;28;20408;-79
2024/01/13 00:27:28;;;;;;;104.28;38.10;;;;;;;-4.86;100.00;98460.13;4997858;28;20455;-79
2024/01/13 00:29:54;;;;;;;95.28;34.03;;;;;;;-4.84;100.00;98458.25;4996943;28;20426;-79
2024/01/13 00:32:20;;;;;;;125.07;45.97;;;;;;;-4.85;100.00;98448.88;4997575;28;20833;-79
2024/01/13 00:34:47;;;;;;;99.28;37.13;;;;;;;-4.82;100.00;98445.22;4997413;28;20449;-79
2024/01/13 00:37:13;;;;;;;101.68;39.45;;;;;;;-4.83;100.00;98434.06;4997372;28;20457;-79
2024/01/13 00:39:39;;;;;;;136.18;48.75;;;;;;;-4.90;100.00;98432.94;4996580;28;20860;-79
2024/01/13 00:42:05;;;;;;;125.05;45.28;;;;;;;-4.88;100.00;98435.38;4997208;28;20418;-79
2024/01/13 00:44:33;;;;;;;109.25;41.60;;;;;;;-4.88;100.00;98433.63;4996855;28;20414;-79
2024/01/13 00:46:59;;;;;;;100.70;38.67;;;;;;;-4.88;100.00;98441.38;4997673;28;20955;-79
2024/01/13 00:49:25;;;;;;;106.32;37.28;;;;;;;-4.88;100.00;98435.38;5000056;28;20440;-79
2024/01/13 00:51:51;;;;;;;97.57;36.45;;;;;;;-4.89;100.00;98429.44;4998902;28;20402;-79
2024/01/13 00:54:17;;;;;;;88.25;32.05;;;;;;;-4.88;100.00;98420.72;5004321;28;20409;-79
2024/01/13 00:56:43;;;;;;;67.55;27.63;;;;;;;-4.85;100.00;98425.63;5011631;28;20403;-79
2024/01/13 00:59:10;;;;;;;92.45;34.25;;;;;;;-4.82;100.00;98415.06;5006080;28;20398;-79
2024/01/13 01:01:37;;;;;;;97.28;38.28;;;;;;;-4.79;100.00;98414.78;4996981;28;20445;-79
2024/01/13 01:04:04;;;;;;;99.25;37.78;;;;;;;-4.78;100.00;98410.44;4997332;28;20426;-79
2024/01/13 01:06:30;;;;;;;79.90;31.35;;;;;;;-4.74;100.00;98406.66;4996807;28;20399;-79
2024/01/13 01:08:56;;;;;;;104.13;39.60;;;;;;;-4.79;100.00;98407.03;4997508;28;20410;-79
2024/01/13 01:11:23;;;;;;;113.05;43.22;;;;;;;-4.80;100.00;98412.31;4997092;28;20395;-78
2024/01/13 01:13:49;;;;;;;99.75;39.17;;;;;;;-4.82;100.00;98411.66;4996806;28;20892;-79
2024/01/13 01:16:15;;;;;;;101.07;37.60;;;;;;;-4.82;100.00;98417.63;4996178;28;20402;-78
2024/01/13 01:18:43;;;;;;;81.57;31.30;;;;;;;-4.80;100.00;98415.72;4995624;28;20872;-79
2024/01/13 01:21:09;;;;;;;87.22;34.03;;;;;;;-4.80;100.00;98414.91;4994982;28;20493;-79
2024/01/13 01:23:35;;;;;;;75.07;29.80;;;;;;;-4.81;100.00;98411.50;4995708;28;20477;-79
2024/01/13 01:26:02;;;;;;;92.88;36.17;;;;;;;-4.80;100.00;98412.31;4995623;28;20422;-79
2024/01/13 01:28:28;;;;;;;84.32;32.80;;;;;;;-4.82;100.00;98415.06;4996118;28;20405;-79
2024/01/13 01:30:54;;;;;;;78.35;30.10;;;;;;;-4.82;100.00;98415.06;4995280;28;20650;-79
2024/01/13 01:33:20;;;;;;;76.65;28.80;;;;;;;-4.83;100.00;98410.84;4995471;28;20841;-79
2024/01/13 01:35:48;;;;;;;68.43;27.95;;;;;;;-4.83;100.00;98415.19;4995016;28;20755;-78
2024/01/13 01:38:14;;;;;;;74.35;27.88;;;;;;;-4.85;100.00;98401.56;4995494;28;20969;-78
2024/01/13 01:40:41;;;;;;;64.65;25.27;;;;;;;-4.86;100.00;98402.50;4995203;28;20745;-78
2024/01/13 01:43:07;;;;;;;56.05;24.05;;;;;;;-4.84;100.00;98398.03;4995565;28;20502;-79
2024/01/13 01:45:33;;;;;;;53.97;21.73;;;;;;;-4.83;100.00;98397.91;4995117;28;20887;-78
2024/01/13 01:48:06;;;;;;;46.97;20.65;;;;;;;-4.80;100.00;98395.06;4995468;28;20402;-78
2024/01/13 01:50:33;;;;;;;47.97;19.52;;;;;;;-4.77;100.00;98381.91;4995362;28;20493;-79
2024/01/13 01:53:00;;;;;;;41.78;18.10;;;;;;;-4.73;100.00;98385.03;4996322;28;20406;-79
2024/01/13 01:55:26;;;;;;;42.15;17.38;;;;;;;-4.70;100.00;98384.78;4996064;28;20402;-79
2024/01/13 01:57:54;;;;;;;38.30;16.77;;;;;;;-4.68;100.00;98377.72;4995099;28;20414;-78
2024/01/13 02:00:21;;;;;;;45.10;17.70;;;;;;;-4.66;100.00;98377.59;4995339;28;20398;-79
2024/01/13 02:02:47;;;;;;;40.00;17.10;;;;;;;-4.64;100.00;98378.25;4994788;28;20791;-79
2024/01/13 02:05:14;;;;;;;37.80;16.65;;;;;;;-4.62;100.00;98379.78;4995440;28;20522;-78
2024/01/13 02:07:40;;;;;;;36.25;16.55;;;;;;;-4.61;100.00;98375.44;4996881;28;20414;-78
2024/01/13 02:10:09;;;;;;;37.60;16.83;;;;;;;-4.60;100.00;98372.72;4997090;28;20411;-77
2024/01/13 02:12:36;;;;;;;58.13;23.50;;;;;;;-4.59;100.00;98369.19;4995254;28;20402;-78
2024/01/13 02:15:02;;;;;;;71.25;27.35;;;;;;;-4.62;100.00;98368.63;4995712;28;20414;-78
2024/01/13 02:17:28;;;;;;;67.30;28.65;;;;;;;-4.66;100.00;98367.25;4994986;28;20402;-79
2024/01/13 02:19:54;;;;;;;74.32;28.85;;;;;;;-4.70;100.00;98361.53;4995666;28;20485;-79
2024/01/13 02:22:22;;;;;;;65.28;24.25;;;;;;;-4.73;100.00;98366.94;4996247;28;20410;-78
2024/01/13 02:24:48;;;;;;;125.68;45.20;;;;;;;-4.87;100.00;98364.72;4995327;28;20454;-79
2024/01/13 02:27:14;;;;;;;91.70;32.55;;;;;;;-4.86;100.00;98359.44;4994450;28;20407;-79
2024/01/13 02:29:40;;;;;;;91.63;34.83;;;;;;;-4.87;100.00;98357.78;4993003;28;20410;-77
2024/01/13 02:32:06;;;;;;;85.57;30.13;;;;;;;-4.87;100.00;98352.63;4992315;28;20406;-76
2024/01/13 02:34:33;;;;;;;70.10;28.02;;;;;;;-4.86;100.00;98350.88;4992154;28;20812;-77
2024/01/13 02:36:59;;;;;;;71.28;26.63;;;;;;;-4.87;100.00;98349.22;4992210;28;20405;-77
2024/01/13 02:39:27;;;;;;;92.72;33.25;;;;;;;-4.89;100.00;98346.81;4992546;28;20486;-78
2024/01/13 02:41:53;;;;;;;127.00;45.40;;;;;;;-4.95;100.00;98349.88;4994696;28;20395;-79
2024/01/13 02:44:19;;;;;;;128.88;45.78;;;;;;;-5.00;100.00;98352.03;5001042;28;20907;-78
2024/01/13 02:46:45;;;;;;;106.40;37.83;;;;;;;-4.99;100.00;98345.94;5002439;28;20398;-77
2024/01/13 02:49:11;;;;;;;103.50;37.10;;;;;;;-5.00;100.00;98336.56;5001093;28;20983;-77
2024/01/13 02:51:38;;;;;;;117.93;41.90;;;;;;;-4.98;100.00;98342.41;5001611;28;20395;-77
2024/01/13 02:54:04;;;;;;;119.82;39.67;;;;;;;-4.97;100.00;98338.06;5001864;28;20466;-76
2024/01/13 02:56:33;;;;;;;119.88;41.50;;;;;;;-4.99;100.00;98330.44;4996517;28;20485;-78
2024/01/13 02:58:59;;;;;;;104.10;37.03;;;;;;;-4.97;100.00;98317.41;4993803;28;20411;-79
2024/01/13 03:01:27;;;;;;;86.17;30.70;;;;;;;-4.95;100.00;98318.09;4993754;28;20474;-78
2024/01/13 03:03:53;;;;;;;76.07;28.23;;;;;;;-4.91;100.00;98309.16;4993838;28;20429;-78
2024/01/13 03:06:19;;;;;;;68.28;24.75;;;;;;;-4.87;100.00;98313.91;4994642;28;20398;-79
2024/01/13 03:08:46;;;;;;;61.65;24.02;;;;;;;-4.83;100.00;98310.13;4995127;28;20402;-79
2024/01/13 03:11:13;;;;;;;55.35;21.13;;;;;;;-4.80;100.00;98309.84;4996247;28;20434;-79
2024/01/13 03:13:40;;;;;;;59.83;22.77;;;;;;;-4.76;100.00;98311.22;4995891;28;20741;-79
2024/01/13 03:16:07;;;;;;;56.28;21.80;;;;;;;-4.73;100.00;98315.28;5003759;28;20408;-79
2024/01/13 03:18:33;;;;;;;69.70;26.02;;;;;;;-4.72;100.00;98304.00;5003795;28;20399;-79
2024/01/13 03:20:59;;;;;;;61.17;23.50;;;;;;;-4.73;100.00;98308.38;5004297;28;20413;-79
2024/01/13 03:23:25;;;;;;;61.60;23.52;;;;;;;-4.71;100.00;98303.88;4999995;28;20414;-79
2024/01/13 03:25:51;;;;;;;52.88;20.88;;;;;;;-4.69;100.00;98299.41;4998766;28;20454;-79
2024/01/13 03:28:18;;;;;;;54.70;21.67;;;;;;;-4.66;100.00;98302.69;4998389;28;20398;-79
2024/01/13 03:30:45;;;;;;;52.35;21.35;;;;;;;-4.65;100.00;98297.38;4999813;28;20401;-78
2024/01/13 03:33:11;;;;;;;58.80;22.75;;;;;;;-4.63;100.00;98297.25;5004121;28;20457;-78
2024/01/13 03:35:38;;;;;;;78.90;28.93;;;;;;;-4.64;100.00;98298.19;5006366;28;20457;-78
2024/01/13 03:38:04;;;;;;;104.10;35.33;;;;;;;-4.69;100.00;98291.66;5006643;28;20407;-78
2024/01/13 03:40:30;;;;;;;83.63;30.65;;;;;;;-4.72;100.00;98302.25;5007037;28;20407;-78
2024/01/13 03:42:56;;;;;;;76.20;27.67;;;;;;;-4.74;100.00;98309.34;5004683;28;20465;-78
2024/01/13 03:45:22;;;;;;;77.28;29.58;;;;;;;-4.74;100.00;98308.53;5002057;28;20439;-78
2024/01/13 03:47:50;;;;;;;65.35;24.77;;;;;;;-4.73;100.00;98304.97;4997806;28;20398;-78
2024/01/13 03:50:16;;;;;;;70.80;27.13;;;;;;;-4.72;100.00;98304.84;4999097;28;20447;-79
2024/01/13 03:52:42;;;;;;;58.95;22.45;;;;;;;-4.72;100.00;98291.91;4999344;28;20780;-78
2024/01/13 03:55:09;;;;;;;60.40;22.48;;;;;;;-4.68;100.00;98297.66;4998316;28;20394;-77
2024/01/13 03:57:35;;;;;;;68.55;25.17;;;;;;;-4.65;100.00;98297.38;4997712;28;20959;-78
2024/01/13 04:00:01;;;;;;;57.90;22.83;;;;;;;-4.63;100.00;98294.66;4997291;28;20437;-78
2024/01/13 04:02:27;;;;;;;54.57;22.20;;;;;;;-4.62;100.00;98288.53;4998673;28;20467;-78
2024/01/13 04:04:55;;;;;;;57.55;21.65;;;;;;;-4.60;100.00;98281.50;4998472;28;20426;-78
2024/01/13 04:07:21;;;;;;;56.35;21.88;;;;;;;-4.59;100.00;98286.53;4997417;28;20803;-78
2024/01/13 04:09:47;;;;;;;55.22;21.30;;;;;;;-4.58;100.00;98276.97;4997641;28;20434;-78
2024/01/13 04:12:14;;;;;;;53.70;20.80;;;;;;;-4.57;100.00;98265.69;5001416;28;20888;-78
2024/01/13 04:14:40;;;;;;;57.13;21.50;;;;;;;-4.59;100.00;98255.53;5005084;28;20403;-78
2024/01/13 04:17:06;;;;;;;56.50;20.63;;;;;;;-4.59;100.00;98247.78;5002556;28;20414;-78
2024/01/13 04:19:32;;;;;;;57.28;21.63;;;;;;;-4.58;100.00;98256.31;4997075;28;20946;-78
2024/01/13 04:22:00;;;;;;;91.22;32.42;;;;;;;-4.60;100.00;98253.06;4996822;28;20406;-78
2024/01/13 04:24:26;;;;;;;108.72;36.38;;;;;;;-4.62;100.00;98254.97;4996372;28;20482;-78
2024/01/13 04:26:52;;;;;;;90.65;32.47;;;;;;;-4.65;100.00;98255.22;4999975;28;20449;-78
2024/01/13 04:29:18;;;;;;;91.68;32.35;;;;;;;-4.67;100.00;98257.97;5003630;28;20414;-78
2024/01/13 04:31:44;;;;;;;89.13;32.80;;;;;;;-4.69;100.00;98254.69;5001961;28;20926;-79
2024/01/13 04:34:11;;;;;;;88.15;31.10;;;;;;;-4.72;100.00;98255.75;4995952;28;20406;-78
2024/01/13 04:36:37;;;;;;;82.18;30.08;;;;;;;-4.73;100.00;98255.91;4996825;28;20751;-78
2024/01/13 04:39:04;;;;;;;76.93;27.38;;;;;;;-4.74;100.00;98251.69;4996238;28;20398;-77
2024/01/13 04:41:30;;;;;;;85.63;31.63;;;;;;;-4.75;100.00;98245.72;4996395;28;20425;-78
2024/01/13 04:43:57;;;;;;;81.47;27.08;;;;;;;-4.76;100.00;98244.09;4996449;28;20914;-77
2024/01/13 04:46:23;;;;;;;68.07;26.02;;;;;;;-4.75;100.00;98239.75;4996082;28;20474;-77
2024/01/13 04:48:49;;;;;;;66.68;24.95;;;;;;;-4.76;100.00;98244.09;4996323;28;20405;-78
2024/01/13 04:51:16;;;;;;;113.65;39.50;;;;;;;-4.77;100.00;98239.88;4996675;28;20428;-78
2024/01/13 04:53:42;;;;;;;105.50;35.78;;;;;;;-4.77;100.00;98244.22;4995863;28;20445;-78
2024/01/13 04:56:10;;;;;;;89.50;30.13;;;;;;;-4.76;100.00;98245.84;5001651;28;20397;-78
2024/01/13 04:58:36;;;;;;;77.40;28.05;;;;;;;-4.72;100.00;98242.03;5015921;28;20411;-78
2024/01/13 05:01:04;;;;;;;74.40;26.10;;;;;;;-4.70;100.00;98237.56;5015349;28;20405;-78
2024/01/13 05:03:30;;;;;;;69.00;24.73;;;;;;;-4.66;100.00;98232.97;5007864;28;20462;-78
2024/01/13 05:05:57;;;;;;;67.38;24.02;;;;;;;-4.65;100.00;98232.78;4995879;28;20413;-78
2024/01/13 05:08:23;;;;;;;64.45;23.27;;;;;;;-4.62;100.00;98226.56;4995633;28;20437;-78
2024/01/13 05:10:49;;;;;;;56.40;22.02;;;;;;;-4.61;100.00;98234.19;4996087;28;20397;-78
2024/01/13 05:13:17;;;;;;;68.82;24.92;;;;;;;-4.61;100.00;98230.78;4996148;28;20501;-78
2024/01/13 05:15:43;;;;;;;67.10;25.90;;;;;;;-4.61;100.00;98236.75;4996003;28;20436;-78
2024/01/13 05:18:09;;;;;;;65.55;23.63;;;;;;;-4.61;100.00;98231.59;4995481;28;20395;-78
2024/01/13 05:20:35;;;;;;;60.30;23.75;;;;;;;-4.62;100.00;98235.13;4994208;28;20567;-77
2024/01/13 05:23:01;;;;;;;74.23;26.77;;;;;;;-4.63;100.00;98237.84;4992576;28;20424;-77
2024/01/13 05:25:27;;;;;;;77.78;28.55;;;;;;;-4.66;100.00;98233.75;4993828;28;20399;-77
2024/01/13 05:27:54;;;;;;;84.88;30.50;;;;;;;-4.67;100.00;98242.47;4992525;28;20399;-77
2024/01/13 05:30:21;;;;;;;73.20;27.25;;;;;;;-4.69;100.00;98249.53;4992140;28;20482;-77
2024/01/13 05:32:47;;;;;;;67.65;25.63;;;;;;;-4.70;100.00;98248.72;4991709;28;20410;-76
2024/01/13 05:35:14;;;;;;;68.05;25.63;;;;;;;-4.70;100.00;98243.53;4991734;28;20426;-76
2024/01/13 05:37:40;;;;;;;64.63;23.42;;;;;;;-4.69;100.00;98244.34;4991368;28;20537;-77
2024/01/13 05:40:08;;;;;;;72.83;25.57;;;;;;;-4.70;100.00;98230.63;4994739;28;20848;-77
2024/01/13 05:42:34;;;;;;;71.45;25.08;;;;;;;-4.70;100.00;98224.66;4993684;28;20426;-77
2024/01/13 05:45:00;;;;;;;91.03;30.70;;;;;;;-4.71;100.00;98226.41;4991943;28;20523;-77
2024/01/13 05:47:28;;;;;;;154.30;47.72;;;;;;;-4.77;100.00;98228.72;4991937;28;20509;-77
2024/01/13 05:49:54;;;;;;;123.18;40.08;;;;;;;-4.79;100.00;98228.84;4991837;28;20407;-77
2024/01/13 05:52:20;;;;;;;142.35;41.88;;;;;;;-4.81;100.00;98227.38;4992042;28;20402;-76
2024/01/13 05:54:46;;;;;;;131.82;40.65;;;;;;;-4.84;100.00;98230.19;4991970;28;20954;-77
2024/01/13 05:57:12;;;;;;;171.15;56.33;;;;;;;-4.93;100.00;98229.22;4991968;28;20445;-77
2024/01/13 05:59:39;;;;;;;153.52;46.28;;;;;;;-4.92;100.00;98227.47;4992166;28;20911;-77
2024/01/13 06:02:05;;;;;;;136.93;44.90;;;;;;;-4.93;100.00;98223.25;4992348;28;20419;-77
2024/01/13 06:04:33;;;;;;;117.63;37.90;;;;;;;-4.93;100.00;98223.25;4991177;28;20423;-77
2024/01/13 06:06:59;;;;;;;118.75;36.22;;;;;;;-4.91;100.00;98231.69;4991691;28;20402;-77
2024/01/13 06:09:25;;;;;;;140.45;42.83;;;;;;;-4.90;100.00;98230.75;4991110;28;20453;-77
2024/01/13 06:11:51;;;;;;;161.35;50.90;;;;;;;-4.94;100.00;98229.34;4990735;28;20398;-76
2024/01/13 06:14:18;;;;;;;153.63;47.90;;;;;;;-4.95;100.00;98222.56;4991937;28;20402;-76
2024/01/13 06:16:44;;;;;;;171.17;54.40;;;;;;;-4.98;100.00;98228.00;4991929;28;20875;-76
2024/01/13 06:19:10;;;;;;;164.77;52.85;;;;;;;-5.03;100.00;98219.81;4991376;28;20775;-76
2024/01/13 06:21:42;;;;;;;177.98;54.22;;;;;;;-5.04;100.00;98216.47;4991395;28;20410;-76
2024/01/13 06:24:08;;;;;;;158.45;49.20;;;;;;;-5.04;100.00;98221.63;4991081;28;20779;-76
2024/01/13 06:26:38;;;;;;;147.53;45.40;;;;;;;-5.03;100.00;98219.81;4991396;28;20560;-77
2024/01/13 06:29:05;;;;;;;124.37;40.20;;;;;;;-4.99;100.00;98208.31;4990803;28;20966;-76
2024/01/13 06:31:31;;;;;;;180.60;59.03;;;;;;;-5.10;100.00;98198.91;4991219;28;20449;-77
2024/01/13 06:33:57;;;;;;;163.82;53.22;;;;;;;-5.06;100.00;98213.19;4994883;28;20402;-76
2024/01/13 06:36:23;;;;;;;140.40;47.28;;;;;;;-5.05;100.00;98217.41;4991746;28;20402;-76
2024/01/13 06:38:51;;;;;;;150.57;46.15;;;;;;;-5.02;100.00;98213.72;4991695;28;20421;-76
2024/01/13 06:41:17;;;;;;;159.32;49.95;;;;;;;-5.02;100.00;98213.72;4991537;28;20402;-76
2024/01/13 06:43:43;;;;;;;158.23;48.67;;;;;;;-5.01;100.00;98217.94;4989296;28;20418;-77
2024/01/13 06:46:09;;;;;;;177.80;55.83;;;;;;;-5.04;100.00;98221.63;4989163;28;20406;-76
2024/01/13 06:48:35;;;;;;;145.13;46.30;;;;;;;-5.04;100.00;98213.88;4991330;28;20407;-76
2024/01/13 06:51:02;;;;;;;127.82;41.78;;;;;;;-5.01;100.00;98208.44;4995240;28;20458;-77
2024/01/13 06:53:28;;;;;;;137.13;45.55;;;;;;;-5.00;100.00;98215.22;4995077;28;20414;-76
2024/01/13 06:55:55;;;;;;;146.38;47.58;;;;;;;-5.00;100.00;98217.00;4999471;28;20398;-76
2024/01/13 06:58:21;;;;;;;154.65;50.10;;;;;;;-5.01;100.00;98211.00;4995063;28;20413;-77
2024/01/13 07:00:47;;;;;;;171.50;57.20;;;;;;;-5.12;100.00;98204.22;4995163;28;20494;-77
2024/01/13 07:03:14;;;;;;;164.68;55.40;;;;;;;-5.10;100.00;98204.88;4996265;28;20430;-76
2024/01/13 07:05:40;;;;;;;147.02;47.65;;;;;;;-5.07;100.00;98201.22;4995418;28;20410;-77
2024/01/13 07:08:08;;;;;;;186.35;57.85;;;;;;;-5.10;100.00;98209.22;4991971;28;20422;-77
2024/01/13 07:10:34;;;;;;;152.82;49.60;;;;;;;-5.09;100.00;98198.78;4993430;28;20430;-77
2024/01/13 07:13:02;;;;;;;164.57;55.60;;;;;;;-5.09;100.00;98201.34;4995111;28;20437;-76
2024/01/13 07:15:28;;;;;;;157.10;52.15;;;;;;;-5.06;100.00;98192.53;4994484;28;20407;-77
2024/01/13 07:17:54;;;;;;;139.23;44.88;;;;;;;-5.01;100.00;98190.34;4993617;28;20409;-77
2024/01/13 07:20:20;;;;;;;184.75;57.53;;;;;;;-5.03;100.00;98188.84;4992403;28;20455;-77
2024/01/13 07:22:46;;;;;;;163.63;55.17;;;;;;;-5.07;100.00;98188.31;4993919;28;20406;-76
2024/01/13 07:25:14;;;;;;;159.68;52.85;;;;;;;-5.10;100.00;98184.22;4993249;28;20418;-76
2024/01/13 07:27:40;;;;;;;136.48;47.45;;;;;;;-5.06;100.00;98179.63;4993712;28;20417;-76
2024/01/13 07:30:09;;;;;;;135.02;46.25;;;;;;;-5.07;100.00;98173.66;4987577;28;20410;-75
2024/01/13 07:32:35;;;;;;;129.90;44.30;;;;;;;-5.01;100.00;98174.06;4988289;28;20418;-76
2024/01/13 07:35:01;;;;;;;134.07;47.45;;;;;;;-5.05;100.00;98168.34;4989568;28;20430;-76
2024/01/13 07:37:27;;;;;;;129.73;45.73;;;;;;;-5.06;100.00;98169.31;4991546;28;20425;-76
2024/01/13 07:39:53;;;;;;;123.00;42.95;;;;;;;-5.04;100.00;98169.19;4989845;28;20500;-76
2024/01/13 07:42:21;;;;;;;118.53;42.35;;;;;;;-5.03;100.00;98163.03;4989171;28;20496;-76
2024/01/13 07:44:48;;;;;;;118.03;40.65;;;;;;;-5.00;100.00;98168.75;4987205;28;20423;-77
2024/01/13 07:47:15;;;;;;;112.50;38.88;;;;;;;-4.96;100.00;98167.53;4988237;28;20408;-77
2024/01/13 07:49:42;;;;;;;98.07;35.47;;;;;;;-4.93;100.00;98171.63;4980132;28;20891;-77
2024/01/13 07:52:08;;;;;;;112.25;39.08;;;;;;;-4.95;100.00;98182.06;4990069;28;20406;-77
2024/01/13 07:54:35;;;;;;;111.13;41.15;;;;;;;-4.95;100.00;98178.66;4986745;28;20412;-78
2024/01/13 07:57:01;;;;;;;93.93;33.83;;;;;;;-4.90;100.00;98181.69;4989209;28;20400;-77
2024/01/13 07:59:27;;;;;;;113.47;40.42;;;;;;;-4.90;100.00;98189.44;4987210;28;20410;-77
2024/01/13 08:01:54;;;;;;;113.30;43.20;;;;;;;-4.92;100.00;98181.81;4987708;28;20402;-79
2024/01/13 08:04:21;;;;;;;102.05;38.28;;;;;;;-4.86;100.00;98173.53;4983276;28;20617;-78
2024/01/13 08:06:47;;;;;;;96.60;34.87;;;;;;;-4.80;100.00;98170.41;4977556;28;20540;-76
2024/01/13 08:09:13;;;;;;;91.82;33.85;;;;;;;-4.76;100.00;98160.63;4977536;28;20402;-76
2024/01/13 08:11:40;;;;;;;81.88;32.28;;;;;;;-4.71;100.00;98168.78;4981012;28;20487;-76
2024/01/13 08:14:06;;;;;;;90.72;32.28;;;;;;;-4.69;100.00;98169.47;4982073;28;20486;-75
2024/01/13 08:16:32;;;;;;;82.72;31.77;;;;;;;-4.73;100.00;98176.66;4990182;28;20494;-75
2024/01/13 08:19:00;;;;;;;68.95;27.75;;;;;;;-4.66;100.00;98181.31;4992755;28;20406;-75
2024/01/13 08:21:28;;;;;;;86.60;32.63;;;;;;;-4.69;100.00;98178.03;4932964;28;1705211;-76
2024/01/13 08:23:54;;;;;;;82.88;32.53;;;;;;;-4.68;100.00;98176.25;4993743;28;20425;-75
2024/01/13 08:26:21;;;;;;;78.77;31.53;;;;;;;-4.71;100.00;98174.75;4993593;28;20417;-75
2024/01/13 08:28:47;;;;;;;66.78;25.48;;;;;;;-4.62;100.00;98175.72;4994329;28;20875;-76
2024/01/13 08:31:13;;;;;;;51.53;21.70;;;;;;;-4.57;100.00;98176.09;4993973;28;20982;-76
2024/01/13 08:33:39;;;;;;;58.50;24.02;;;;;;;-4.52;100.00;98183.47;4994107;28;20701;-76
2024/01/13 08:36:05;;;;;;;51.80;20.42;;;;;;;-4.50;100.00;98178.97;4983710;28;20438;-77
2024/01/13 08:38:33;;;;;;;38.08;15.95;;;;;;;-4.47;100.00;98183.88;4984876;28;20399;-77
2024/01/13 08:40:59;;;;;;;32.95;15.38;;;;;;;-4.46;100.00;98180.31;4982263;28;20407;-77
2024/01/13 08:43:25;;;;;;;29.15;13.85;;;;;;;-4.42;100.00;98173.91;4983432;28;20433;-77
2024/01/13 08:45:51;;;;;;;22.38;11.38;;;;;;;-4.36;100.00;98175.97;4993659;28;20916;-76
2024/01/13 08:48:17;;;;;;;25.67;12.23;;;;;;;-4.33;100.00;98173.09;4994213;28;20407;-76
2024/01/13 08:50:44;;;;;;;19.95;10.18;;;;;;;-4.28;100.00;98174.31;4994351;28;20464;-77
2024/01/13 08:53:10;;;;;;;17.58;9.25;;;;;;;-4.23;100.00;98176.50;4984813;28;20411;-77
2024/01/13 08:55:37;;;;;;;14.98;8.40;;;;;;;-4.20;100.00;98176.19;4991013;28;20413;-77
2024/01/13 08:58:03;;;;;;;17.52;8.82;;;;;;;-4.16;100.00;98175.00;4994250;28;20860;-77
2024/01/13 09:00:32;;;;;;;12.40;7.15;;;;;;;-4.10;100.00;98182.19;4993561;28;20399;-77
2024/01/13 09:02:58;;;;;;;11.70;6.63;;;;;;;-4.03;100.00;98180.66;4992341;28;20410;-77
2024/01/13 09:05:24;;;;;;;10.38;6.40;;;;;;;-3.96;100.00;98180.91;4995968;28;20418;-77
2024/01/13 09:07:50;;;;;;;17.02;9.02;;;;;;;-3.98;100.00;98191.38;4995068;28;20886;-77
2024/01/13 09:10:17;;;;;;;20.67;10.73;;;;;;;-4.05;100.00;98195.50;4994856;28;20937;-77
2024/01/13 09:12:44;;;;;;;18.73;10.48;;;;;;;-4.04;100.00;98186.78;4990004;28;20406;-77
2024/01/13 09:15:12;;;;;;;19.58;9.90;;;;;;;-4.08;100.00;98185.44;4992337;28;20738;-77
2024/01/13 09:17:38;;;;;;;16.30;9.73;;;;;;;-4.09;100.00;98190.75;4998093;28;20398;-76
2024/01/13 09:20:06;;;;;;;15.75;8.77;;;;;;;-4.06;100.00;98193.84;4997644;28;20748;-76
2024/01/13 09:22:32;;;;;;;12.77;7.38;;;;;;;-4.02;100.00;98190.06;4996871;28;20896;-76
2024/01/13 09:24:59;;;;;;;11.93;7.20;;;;;;;-3.97;100.00;98182.69;4997576;28;20546;-76
2024/01/13 09:27:25;;;;;;;12.13;6.78;;;;;;;-3.91;100.00;98181.31;4995290;28;20472;-76
2024/01/13 09:29:53;;;;;;;15.52;8.18;;;;;;;-3.87;100.00;98189.59;4986279;28;20921;-76
2024/01/13 09:32:19;;;;;;;14.07;7.97;;;;;;;-3.83;100.00;98193.56;4975421;28;20956;-78
2024/01/13 09:34:45;;;;;;;14.13;8.15;;;;;;;-3.82;100.00;98195.97;4977788;28;20420;-77
2024/01/13 09:37:11;;;;;;;20.33;10.35;;;;;;;-3.78;100.00;98202.53;4979053;28;20396;-78
2024/01/13 09:39:38;;;;;;;18.10;10.02;;;;;;;-3.80;100.00;98199.25;4980702;28;20407;-78
2024/01/13 09:42:04;;;;;;;32.40;15.63;;;;;;;-3.88;100.00;98201.72;4975907;28;20495;-78
2024/01/13 09:44:32;;;;;;;35.85;17.55;;;;;;;-4.00;100.00;98185.56;4973867;28;20483;-77
2024/01/13 09:47:01;;;;;;;30.67;15.57;;;;;;;-3.98;100.00;98191.38;4973807;28;20444;-77
2024/01/13 09:49:29;;;;;;;24.52;12.57;;;;;;;-3.93;100.00;98180.66;4973227;28;20404;-77
2024/01/13 09:51:56;;;;;;;22.27;12.38;;;;;;;-3.87;100.00;98171.50;4973662;28;20396;-77
2024/01/13 09:54:24;;;;;;;22.45;11.80;;;;;;;-3.80;100.00;98182.91;4973566;28;20477;-77
2024/01/13 09:56:51;;;;;;;21.85;11.48;;;;;;;-3.75;100.00;98176.34;4973721;28;20396;-77
2024/01/13 09:59:21;;;;;;;27.73;14.18;;;;;;;-3.70;100.00;98178.53;4973604;28;20494;-77
2024/01/13 10:01:47;;;;;;;33.33;16.95;;;;;;;-3.68;100.00;98174.00;4973219;28;20411;-77
2024/01/13 10:04:15;;;;;;;36.28;18.15;;;;;;;-3.69;100.00;98178.41;4973353;28;20495;-77
2024/01/13 10:06:41;;;;;;;36.97;18.65;;;;;;;-3.75;100.00;98157.44;4973305;28;20404;-77
2024/01/13 10:09:07;;;;;;;34.03;16.92;;;;;;;-3.74;100.00;98153.88;4973464;28;20392;-77
2024/01/13 10:11:34;;;;;;;37.50;18.52;;;;;;;-3.80;100.00;98152.69;4973339;28;20404;-77
2024/01/13 10:14:00;;;;;;;36.60;18.63;;;;;;;-3.81;100.00;98145.06;4972865;28;20442;-77
2024/01/13 10:16:28;;;;;;;40.85;20.55;;;;;;;-3.94;100.00;98143.63;4973387;28;20408;-77
2024/01/13 10:18:54;;;;;;;42.90;21.92;;;;;;;-3.99;100.00;98135.50;4974526;28;20428;-77
2024/01/13 10:21:23;;;;;;;45.47;21.48;;;;;;;-4.10;100.00;98130.47;4974023;28;20426;-77
2024/01/13 10:23:49;;;;;;;40.83;19.97;;;;;;;-4.00;100.00;98125.28;4977868;28;20431;-77
2024/01/13 10:26:16;;;;;;;39.95;19.65;;;;;;;-3.98;100.00;98125.94;4988611;28;20415;-77
2024/01/13 10:28:43;;;;;;;38.20;19.67;;;;;;;-3.91;100.00;98127.81;4990474;28;20415;-77
2024/01/13 10:31:09;;;;;;;51.78;22.13;;;;;;;-3.99;100.00;98137.25;4983854;28;20451;-77
2024/01/13 10:33:38;;;;;;;41.58;20.65;;;;;;;-3.97;100.00;98132.72;4988120;28;20406;-77
2024/01/13 10:36:05;;;;;;;43.93;22.73;;;;;;;-3.95;100.00;98141.19;4980106;28;20396;-78
2024/01/13 10:38:33;;;;;;;47.80;22.70;;;;;;;-3.91;100.00;98143.31;4993035;28;20491;-78
2024/01/13 10:40:59;;;;;;;36.92;18.95;;;;;;;-3.86;100.00;98145.50;4991519;28;20895;-77
2024/01/13 10:43:27;;;;;;;33.88;16.67;;;;;;;-3.81;100.00;98132.94;4991638;28;20775;-75
2024/01/13 10:45:59;;;;;;;36.35;17.63;;;;;;;-3.75;100.00;98139.31;4986884;28;20506;-76
2024/01/13 10:48:36;;;;;;;41.03;20.63;;;;;;;-3.76;100.00;98130.75;4990047;28;20402;-77
2024/01/13 10:51:07;;;;;;;51.70;24.33;;;;;;;-3.79;100.00;98122.47;4987515;28;20400;-78
2024/01/13 10:53:36;;;;;;;38.60;19.52;;;;;;;-3.78;100.00;98108.59;4988900;28;20426;-76
2024/01/13 10:56:04;;;;;;;42.38;22.15;;;;;;;-3.82;100.00;98091.72;4984020;28;20508;-77
2024/01/13 10:58:33;;;;;;;40.40;20.23;;;;;;;-3.79;100.00;98092.25;4990056;28;20460;-77
2024/01/13 11:00:59;;;;;;;47.10;24.07;;;;;;;-3.97;100.00;98076.66;4987362;28;20430;-77
2024/01/13 11:03:26;;;;;;;43.35;20.95;;;;;;;-3.85;100.00;98079.09;4985839;28;20411;-76